createdAt,value
2022-10-21T00:01:07.737Z,100153.69
2022-10-21T00:03:36.192Z,100136.06
2022-10-21T00:06:05.127Z,100125.88
2022-10-21T00:08:33.077Z,100097.69
2022-10-21T00:11:02.691Z,100078.41
2022-10-21T00:13:33.620Z,100073.94
2022-10-21T00:16:02.820Z,100073.31
2022-10-21T00:18:33.055Z,100055.22
2022-10-21T00:21:01.003Z,100059.59
2022-10-21T00:23:28.877Z,100067.41
2022-10-21T00:25:57.872Z,100070.38
2022-10-21T00:28:26.110Z,100068.94
2022-10-21T00:30:53.908Z,100076.16
2022-10-21T00:33:21.734Z,100082.47
2022-10-21T00:35:53.532Z,100072.13
2022-10-21T00:40:54.204Z,100081.25
2022-10-21T00:43:22.061Z,100085.75
2022-10-21T00:45:53.485Z,100063.03
2022-10-21T00:48:27.478Z,100077.81
2022-10-21T00:51:00.234Z,100060.09
2022-10-21T00:53:28.423Z,100063.50
2022-10-21T00:56:01.314Z,100076.06
2022-10-21T00:58:32.857Z,100070.59
2022-10-21T01:01:03.235Z,100069.31
2022-10-21T01:03:33.146Z,100067.41
2022-10-21T01:06:13.866Z,100069.19
2022-10-21T01:08:42.000Z,100064.34
2022-10-21T01:11:14.344Z,100061.09
2022-10-21T01:13:58.175Z,100068.22
2022-10-21T01:16:34.542Z,100046.22
2022-10-21T01:19:09.245Z,100056.50
2022-10-21T01:21:42.598Z,100038.38
2022-10-21T01:24:44.458Z,100039.22
2022-10-21T01:27:22.603Z,100034.63
2022-10-21T01:30:28.738Z,100038.44
2022-10-21T01:35:45.394Z,100012.97
2022-10-21T01:38:23.432Z,100005.53
2022-10-21T01:40:57.701Z,99983.53
2022-10-21T01:43:33.469Z,99995.69
2022-10-21T01:46:05.857Z,99981.88
2022-10-21T01:48:40.888Z,99963.66
2022-10-21T01:51:11.092Z,99975.13
2022-10-21T01:53:51.533Z,99962.84
2022-10-21T01:56:21.253Z,99963.69
2022-10-21T01:58:50.318Z,99953.13
2022-10-21T02:01:20.053Z,99965.44
2022-10-21T02:03:55.866Z,99957.16
2022-10-21T02:06:25.141Z,99960.81
2022-10-21T02:08:53.266Z,99954.56
2022-10-21T02:11:21.229Z,99960.09
2022-10-21T02:13:55.297Z,99965.09
2022-10-21T02:16:27.343Z,99957.97
2022-10-21T02:18:57.939Z,99969.31
2022-10-21T02:21:28.636Z,99975.59
2022-10-21T02:24:01.873Z,99969.47
2022-10-21T02:26:29.888Z,99953.75
2022-10-21T02:28:59.927Z,99952.78
2022-10-21T02:31:51.462Z,99966.03
2022-10-21T02:34:30.328Z,99973.72
2022-10-21T02:37:09.239Z,99983.91
2022-10-21T02:39:43.087Z,99986.13
2022-10-21T02:42:15.357Z,99968.63
2022-10-21T02:44:43.226Z,99960.88
2022-10-21T02:49:46.746Z,99940.59
2022-10-21T02:52:14.601Z,99951.94
2022-10-21T02:54:42.582Z,99950.06
2022-10-21T02:57:10.398Z,99947.09
2022-10-21T02:59:38.249Z,99930.44
2022-10-21T03:02:06.019Z,99931.97
2022-10-21T03:04:33.869Z,99944.16
2022-10-21T03:07:03.091Z,99937.41
2022-10-21T03:09:30.880Z,99941.44
2022-10-21T03:11:58.621Z,99956.56
2022-10-21T03:14:26.360Z,99950.53
2022-10-21T03:16:54.222Z,99958.59
2022-10-21T03:19:21.975Z,99950.19
2022-10-21T03:21:49.784Z,99953.63
2022-10-21T03:24:27.924Z,99947.22
2022-10-21T03:26:57.087Z,99929.84
2022-10-21T03:29:24.851Z,99925.22
2022-10-21T03:31:52.648Z,99905.63
2022-10-21T03:34:20.529Z,99919.78
2022-10-21T03:36:48.633Z,99918.13
2022-10-21T03:39:16.443Z,99907.72
2022-10-21T03:41:45.669Z,99891.06
2022-10-21T03:44:13.462Z,99895.44
2022-10-21T03:46:41.306Z,99902.19
2022-10-21T03:49:18.273Z,99903.38
2022-10-21T03:51:48.902Z,99902.41
2022-10-21T03:54:17.212Z,99906.06
2022-10-21T03:56:46.512Z,99901.00
2022-10-21T03:59:14.654Z,99895.78
2022-10-21T04:01:42.885Z,99893.66
2022-10-21T04:04:10.873Z,99891.63
2022-10-21T04:06:40.932Z,99902.16
2022-10-21T04:09:08.950Z,99905.22
2022-10-21T04:11:36.976Z,99900.84
2022-10-21T04:14:10.307Z,99899.66
2022-10-21T04:16:41.004Z,99883.81
2022-10-21T04:19:08.969Z,99854.38
2022-10-21T04:21:36.829Z,99875.13
2022-10-21T04:24:05.205Z,99880.34
2022-10-21T04:26:33.090Z,99884.72
2022-10-21T04:29:01.086Z,99880.91
2022-10-21T04:31:32.189Z,99891.22
2022-10-21T04:34:00.363Z,99881.66
2022-10-21T04:36:28.298Z,99879.63
2022-10-21T04:38:56.375Z,99876.34
2022-10-21T04:41:24.614Z,99867.28
2022-10-21T04:43:54.466Z,99867.84
2022-10-21T04:46:22.653Z,99859.31
2022-10-21T04:48:52.197Z,99862.72
2022-10-21T04:51:21.308Z,99867.53
2022-10-21T04:53:49.465Z,99846.59
2022-10-21T04:56:17.615Z,99861.34
2022-10-21T04:58:45.472Z,99845.69
2022-10-21T05:01:13.438Z,99856.59
2022-10-21T05:03:41.413Z,99853.50
2022-10-21T05:06:11.088Z,99833.47
2022-10-21T05:08:39.055Z,99851.13
2022-10-21T05:11:08.225Z,99850.47
2022-10-21T05:13:36.062Z,99842.69
2022-10-21T05:16:05.102Z,99859.22
2022-10-21T05:18:33.211Z,99848.81
2022-10-21T05:21:01.304Z,99859.22
2022-10-21T05:23:30.688Z,99848.81
2022-10-21T05:25:58.693Z,99844.53
2022-10-21T05:28:26.735Z,99841.31
2022-10-21T05:30:54.832Z,99838.75
2022-10-21T05:33:23.007Z,99838.63
2022-10-21T05:35:58.583Z,99829.84
2022-10-21T05:38:26.553Z,99827.28
2022-10-21T05:40:55.695Z,99832.72
2022-10-21T05:43:24.463Z,99835.69
2022-10-21T05:45:52.520Z,99838.41
2022-10-21T05:48:20.669Z,99838.16
2022-10-21T05:50:53.471Z,99849.88
2022-10-21T05:53:21.990Z,99811.38
2022-10-21T05:55:58.156Z,99832.63
2022-10-21T05:58:26.747Z,99816.34
2022-10-21T06:00:55.883Z,99818.59
2022-10-21T06:03:25.049Z,99793.31
2022-10-21T06:05:53.110Z,99809.84
2022-10-21T06:08:21.156Z,99809.16
2022-10-21T06:10:49.122Z,99807.34
2022-10-21T06:13:18.277Z,99818.06
2022-10-21T06:15:50.271Z,99822.41
2022-10-21T06:18:18.994Z,99818.88
2022-10-21T06:20:46.915Z,99819.09
2022-10-21T06:23:17.511Z,99833.53
2022-10-21T06:25:55.006Z,99817.97
2022-10-21T06:28:24.359Z,99841.78
2022-10-21T06:30:52.347Z,99808.25
2022-10-21T06:33:26.072Z,99854.47
2022-10-21T06:35:55.971Z,99837.09
2022-10-21T06:38:24.724Z,99850.56
2022-10-21T06:40:52.713Z,99847.34
2022-10-21T06:46:00.640Z,99831.03
2022-10-21T06:48:28.769Z,99833.34
2022-10-21T06:51:01.466Z,99840.44
2022-10-21T06:53:31.274Z,99842.19
2022-10-21T06:56:01.944Z,99840.03
2022-10-21T06:58:30.754Z,99805.00
2022-10-21T07:01:00.056Z,99824.16
2022-10-21T07:03:28.076Z,99836.22
2022-10-21T07:05:59.984Z,99804.47
2022-10-21T07:08:46.236Z,99823.94
2022-10-21T07:11:16.367Z,99846.31
2022-10-21T07:13:44.438Z,99851.34
2022-10-21T07:16:18.317Z,99851.81
2022-10-21T07:18:46.222Z,99857.63
2022-10-21T07:21:17.655Z,99853.31
2022-10-21T07:23:46.673Z,99869.91
2022-10-21T07:26:14.812Z,99867.84
2022-10-21T07:28:46.922Z,99871.16
2022-10-21T07:31:22.535Z,99833.25
2022-10-21T07:33:50.496Z,99878.69
2022-10-21T07:36:22.515Z,99876.19
2022-10-21T07:38:52.354Z,99879.75
2022-10-21T07:41:22.501Z,99866.66
2022-10-21T07:43:50.960Z,99855.81
2022-10-21T07:46:21.754Z,99878.94
2022-10-21T07:48:50.421Z,99890.25
2022-10-21T07:51:20.741Z,99891.06
2022-10-21T07:53:49.961Z,99888.75
2022-10-21T07:56:20.653Z,99889.28
2022-10-21T07:58:48.997Z,99862.69
2022-10-21T08:01:17.866Z,99862.16
2022-10-21T08:03:48.134Z,99889.41
2022-10-21T08:06:18.786Z,99885.91
2022-10-21T08:08:47.142Z,99883.72
2022-10-21T08:11:25.719Z,99875.13
2022-10-21T08:13:54.712Z,99891.84
2022-10-21T08:16:22.746Z,99886.13
2022-10-21T08:18:52.244Z,99891.91
2022-10-21T08:21:20.192Z,99891.06
2022-10-21T08:23:47.939Z,99891.41
2022-10-21T08:26:16.954Z,99886.84
2022-10-21T08:28:45.125Z,99883.16
2022-10-21T08:31:15.285Z,99876.09
2022-10-21T08:33:43.828Z,99859.47
2022-10-21T08:36:16.054Z,99868.81
2022-10-21T08:38:46.715Z,99854.84
2022-10-21T08:41:42.440Z,99864.06
2022-10-21T08:44:19.351Z,99864.47
2022-10-21T08:46:51.015Z,99866.94
2022-10-21T08:49:25.180Z,99862.56
2022-10-21T08:52:03.308Z,99873.66
2022-10-21T08:54:39.978Z,99871.41
2022-10-21T08:57:11.511Z,99865.97
2022-10-21T08:59:42.175Z,99870.34
2022-10-21T09:02:26.163Z,99872.63
2022-10-21T09:05:01.420Z,99857.91
2022-10-21T09:07:42.591Z,99848.97
2022-10-21T09:10:19.681Z,99862.41
2022-10-21T09:12:59.847Z,99856.16
2022-10-21T09:15:34.047Z,99845.94
2022-10-21T09:18:17.669Z,99850.03
2022-10-21T09:20:56.604Z,99873.00
2022-10-21T09:23:41.331Z,99873.47
2022-10-21T09:26:17.001Z,99870.97
2022-10-21T09:28:46.988Z,99871.84
2022-10-21T09:31:18.369Z,99871.34
2022-10-21T09:33:49.984Z,99880.25
2022-10-21T09:36:24.860Z,99870.84
2022-10-21T09:38:59.187Z,99882.06
2022-10-21T09:41:33.827Z,99885.19
2022-10-21T09:44:01.671Z,99884.09
2022-10-21T09:46:29.531Z,99886.59
2022-10-21T09:49:36.409Z,99881.38
2022-10-21T09:51:46.564Z,99885.38
2022-10-21T09:54:18.982Z,99891.59
2022-10-21T09:56:51.181Z,99893.44
2022-10-21T09:59:22.757Z,99879.63
2022-10-21T10:01:51.679Z,99861.41
2022-10-21T10:04:24.729Z,99880.09
2022-10-21T10:06:53.177Z,99864.84
2022-10-21T10:09:28.869Z,99885.31
2022-10-21T10:11:58.797Z,99885.31
2022-10-21T10:14:30.980Z,99889.09
2022-10-21T10:17:19.533Z,99896.03
2022-10-21T10:20:09.098Z,99885.91
2022-10-21T10:22:38.670Z,99887.63
2022-10-21T10:25:21.602Z,99886.00
2022-10-21T10:27:51.952Z,99881.13
2022-10-21T10:30:20.997Z,99892.75
2022-10-21T10:32:51.016Z,99886.44
2022-10-21T10:35:29.309Z,99899.94
2022-10-21T10:37:58.547Z,99869.94
2022-10-21T10:40:32.485Z,99887.56
2022-10-21T10:43:04.939Z,99888.13
2022-10-21T10:45:33.215Z,99871.88
2022-10-21T10:48:03.973Z,99879.59
2022-10-21T10:50:46.916Z,99908.13
2022-10-21T10:53:29.071Z,99885.41
2022-10-21T10:56:07.245Z,99882.69
2022-10-21T10:58:40.993Z,99883.78
2022-10-21T11:01:14.391Z,99862.44
2022-10-21T11:03:47.177Z,99885.78
2022-10-21T11:06:18.418Z,99878.31
2022-10-21T11:08:51.352Z,99847.34
2022-10-21T11:11:25.800Z,99872.31
2022-10-21T11:13:54.446Z,99865.19
2022-10-21T11:16:59.545Z,99852.94
2022-10-21T11:19:36.009Z,99839.75
2022-10-21T11:22:13.812Z,99835.91
2022-10-21T11:24:55.281Z,99826.66
2022-10-21T11:27:35.359Z,99820.94
2022-10-21T11:30:06.907Z,99837.34
2022-10-21T11:32:49.936Z,99854.94
2022-10-21T11:35:27.240Z,99852.69
2022-10-21T11:38:07.841Z,99870.66
2022-10-21T11:40:44.961Z,99863.28
2022-10-21T11:43:27.260Z,99862.75
2022-10-21T11:46:02.164Z,99883.03
2022-10-21T11:48:50.345Z,99882.53
2022-10-21T11:51:26.953Z,99892.44
2022-10-21T11:54:20.050Z,99901.50
2022-10-21T11:56:53.627Z,99903.88
2022-10-21T11:59:34.222Z,99909.91
2022-10-21T12:02:15.888Z,99915.88
2022-10-21T12:04:52.172Z,99874.81
2022-10-21T12:07:39.907Z,99897.72
2022-10-21T12:10:14.580Z,99915.13
2022-10-21T12:12:47.543Z,99887.25
2022-10-21T12:15:22.127Z,99878.19
2022-10-21T12:17:54.006Z,99894.34
2022-10-21T12:20:24.386Z,99878.28
2022-10-21T12:22:58.073Z,99873.91
2022-10-21T12:25:34.860Z,99869.25
2022-10-21T12:28:09.141Z,99888.50
2022-10-21T12:30:44.793Z,99884.34
2022-10-21T12:33:18.476Z,99873.91
2022-10-21T12:35:50.515Z,99867.31
2022-10-21T12:38:24.598Z,99889.56
2022-10-21T12:41:26.716Z,99880.47
2022-10-21T12:44:00.321Z,99867.00
2022-10-21T12:46:34.956Z,99867.00
2022-10-21T12:49:08.306Z,99863.47
2022-10-21T12:51:37.674Z,99851.66
2022-10-21T12:54:10.243Z,99898.59
2022-10-21T12:56:44.630Z,99895.28
2022-10-21T12:59:28.295Z,99857.72
2022-10-21T13:02:30.854Z,99853.00
2022-10-21T13:04:59.862Z,99830.31
2022-10-21T13:07:36.801Z,99870.94
2022-10-21T13:10:35.437Z,99881.09
2022-10-21T13:13:36.581Z,99885.47
2022-10-21T13:16:30.395Z,99882.72
2022-10-21T13:19:02.788Z,99888.78
2022-10-21T13:21:42.370Z,99888.78
2022-10-21T13:24:21.229Z,99855.28
2022-10-21T13:26:52.313Z,99833.84
2022-10-21T13:29:42.447Z,99858.84
2022-10-21T13:32:27.139Z,99882.69
2022-10-21T13:35:02.277Z,99873.16
2022-10-21T13:37:35.026Z,99883.56
2022-10-21T13:40:07.695Z,99874.50
2022-10-21T13:42:40.055Z,99859.09
2022-10-21T13:45:23.740Z,99894.16
2022-10-21T13:48:01.122Z,99872.22
2022-10-21T13:50:33.718Z,99881.81
2022-10-21T13:53:04.807Z,99885.13
2022-10-21T13:55:32.819Z,99835.47
2022-10-21T13:58:02.714Z,99858.00
2022-10-21T14:00:33.067Z,99842.38
2022-10-21T14:03:03.125Z,99884.91
2022-10-21T14:05:36.521Z,99872.56
2022-10-21T14:08:06.872Z,99887.13
2022-10-21T16:08:54.784Z,99864.13
2022-10-21T16:11:34.881Z,99868.22
2022-10-21T16:14:14.296Z,99845.34
2022-10-21T16:16:47.383Z,99863.47
2022-10-21T16:19:16.343Z,99852.72
2022-10-21T16:21:44.674Z,99834.91
2022-10-21T16:24:13.308Z,99865.66
2022-10-21T16:26:44.912Z,99869.50
2022-10-21T16:29:19.271Z,99846.47
2022-10-21T16:31:47.636Z,99859.66
2022-10-21T16:34:16.716Z,99850.00
2022-10-21T16:36:44.840Z,99844.75
2022-10-21T16:39:16.475Z,99859.34
2022-10-21T16:41:45.750Z,99845.03
2022-10-21T16:44:14.037Z,99876.91
2022-10-21T16:46:46.717Z,99873.59
2022-10-21T16:49:22.378Z,99884.81
2022-10-21T16:51:51.988Z,99859.03
2022-10-21T16:54:21.205Z,99850.25
2022-10-21T16:56:53.320Z,99846.38
2022-10-21T16:59:23.376Z,99843.63
2022-10-21T17:01:51.609Z,99859.00
2022-10-21T17:04:19.602Z,99876.22
2022-10-21T17:06:47.644Z,99857.81
2022-10-21T17:09:15.850Z,99864.09
2022-10-21T17:11:43.845Z,99861.03
2022-10-21T17:14:19.084Z,99884.34
2022-10-21T17:16:50.535Z,99875.00
2022-10-21T17:19:18.609Z,99906.59
2022-10-21T17:21:46.978Z,99889.00
2022-10-21T17:24:17.711Z,99905.50
2022-10-21T17:26:46.228Z,99896.44
2022-10-21T17:29:15.634Z,99882.06
2022-10-21T17:31:44.131Z,99883.44
2022-10-21T17:34:22.117Z,99911.47
2022-10-21T17:36:50.128Z,99899.09
2022-10-21T17:39:18.123Z,99907.38
2022-10-21T17:44:17.073Z,99882.63
2022-10-21T17:46:45.986Z,99898.09
2022-10-21T17:49:14.149Z,99928.50
2022-10-21T17:51:42.183Z,99901.34
2022-10-21T17:54:11.580Z,99892.00
2022-10-21T17:56:39.971Z,99914.78
2022-10-21T17:59:10.992Z,99920.44
2022-10-21T18:01:40.835Z,99874.72
2022-10-21T18:04:09.302Z,99897.34
2022-10-21T18:06:37.636Z,99910.56
2022-10-21T18:09:08.394Z,99914.09
2022-10-21T18:11:36.801Z,99918.44
2022-10-21T18:14:05.290Z,99922.50
2022-10-21T18:16:34.842Z,99935.06
2022-10-21T18:19:04.094Z,99933.91
2022-10-21T18:21:32.141Z,99949.84
2022-10-21T18:24:00.889Z,99955.06
2022-10-21T18:26:30.969Z,99940.88
2022-10-21T18:29:01.746Z,99929.38
2022-10-21T18:31:31.207Z,99925.28
2022-10-21T18:34:00.614Z,99908.53
2022-10-21T18:36:30.520Z,99915.44
2022-10-21T18:38:59.798Z,99917.00
2022-10-21T18:41:28.808Z,99930.78
2022-10-21T18:44:01.269Z,99880.75
2022-10-21T18:46:29.639Z,99911.88
2022-10-21T18:48:58.434Z,99891.81
2022-10-21T18:51:31.121Z,99893.94
2022-10-21T18:53:59.507Z,99898.56
2022-10-21T18:56:27.984Z,99872.06
2022-10-21T18:58:57.316Z,99902.16
2022-10-21T19:01:27.014Z,99898.50
2022-10-21T19:03:56.830Z,99908.13
2022-10-21T19:06:39.035Z,99877.06
2022-10-21T19:09:10.409Z,99865.13
2022-10-21T19:11:38.843Z,99908.25
2022-10-21T19:14:11.189Z,99907.66
2022-10-21T19:16:42.312Z,99874.13
2022-10-21T19:19:11.096Z,99892.81
2022-10-21T19:21:40.727Z,99906.19
2022-10-21T19:24:09.631Z,99904.78
2022-10-21T19:26:40.527Z,99856.94
2022-10-21T19:29:10.382Z,99916.09
2022-10-21T19:31:38.954Z,99921.25
2022-10-21T19:34:07.590Z,99924.59
2022-10-21T19:36:40.474Z,99906.31
2022-10-21T19:39:09.062Z,99935.41
2022-10-21T19:41:40.481Z,99960.13
2022-10-21T19:44:09.490Z,99894.78
2022-10-21T19:46:39.350Z,99921.44
2022-10-21T19:49:09.168Z,99956.88
2022-10-21T19:51:42.436Z,99959.72
2022-10-21T19:54:16.275Z,99954.63
2022-10-21T19:56:44.406Z,99928.00
2022-10-21T19:59:12.484Z,99930.53
2022-10-21T20:01:40.648Z,99957.09
2022-10-21T20:04:08.686Z,99950.91
2022-10-21T20:06:38.595Z,99926.81
2022-10-21T20:09:09.809Z,99929.34
2022-10-21T20:11:38.101Z,99942.44
2022-10-21T20:14:06.945Z,99951.63
2022-10-21T20:16:38.152Z,99960.13
2022-10-21T20:19:07.913Z,99967.63
2022-10-21T20:21:37.689Z,99951.28
2022-10-21T20:24:07.531Z,99914.91
2022-10-21T20:26:35.709Z,99959.09
2022-10-21T20:29:03.999Z,99945.72
2022-10-21T20:31:32.475Z,99964.06
2022-10-21T20:34:00.536Z,99925.44
2022-10-21T20:36:32.382Z,99957.72
2022-10-21T20:39:01.773Z,99949.88
2022-10-21T20:41:34.281Z,99959.47
2022-10-21T20:44:03.121Z,99944.00
2022-10-21T20:46:34.874Z,99961.13
2022-10-21T20:49:04.860Z,99963.22
2022-10-21T20:51:32.846Z,99971.91
2022-10-21T20:54:03.621Z,99949.41
2022-10-21T20:56:34.460Z,99976.88
2022-10-21T20:59:03.762Z,99944.16
2022-10-21T21:01:33.793Z,99980.44
2022-10-21T21:04:05.349Z,99991.59
2022-10-21T21:06:37.555Z,99973.63
2022-10-21T21:09:33.320Z,99961.47
2022-10-21T21:11:55.039Z,99967.75
2022-10-21T21:14:23.134Z,99992.66
2022-10-21T21:16:51.570Z,99973.97
2022-10-21T21:19:20.715Z,99944.69
2022-10-21T21:21:52.004Z,99980.97
2022-10-21T21:24:20.173Z,99953.72
2022-10-21T21:26:48.193Z,99962.47
2022-10-21T21:29:17.476Z,99928.94
2022-10-21T21:31:45.666Z,99934.44
2022-10-21T21:34:13.635Z,99911.97
2022-10-21T21:36:42.191Z,99914.22
2022-10-21T21:39:11.099Z,99918.75
2022-10-21T21:41:39.130Z,99905.63
2022-10-21T21:44:07.413Z,99938.19
2022-10-21T21:46:36.652Z,99944.94
2022-10-21T21:49:06.422Z,99945.19
2022-10-21T21:51:35.780Z,99933.97
2022-10-21T21:54:05.053Z,99928.28
2022-10-21T21:56:33.102Z,99947.53
2022-10-21T21:59:00.999Z,99966.28
2022-10-21T22:01:30.543Z,99952.25
2022-10-21T22:04:00.834Z,99944.47
2022-10-21T22:06:31.163Z,99935.03
2022-10-21T22:08:59.974Z,99971.25
2022-10-21T22:11:30.239Z,99956.94
2022-10-21T22:13:58.728Z,99991.72
2022-10-21T22:16:30.073Z,99981.59
2022-10-21T22:19:01.813Z,99968.19
2022-10-21T22:21:31.388Z,99950.69
2022-10-21T22:23:59.803Z,99954.31
2022-10-21T22:26:28.094Z,99892.50
2022-10-21T22:28:56.104Z,99975.88
2022-10-21T22:31:29.183Z,99966.94
2022-10-21T22:34:02.179Z,99941.25
2022-10-21T22:36:30.597Z,99935.03
2022-10-21T22:38:59.023Z,99936.19
2022-10-21T22:41:27.364Z,99910.56
2022-10-21T22:43:55.480Z,99930.06
2022-10-21T22:46:39.685Z,99924.06
2022-10-21T22:49:10.318Z,99949.91
2022-10-21T22:51:38.562Z,99934.88
2022-10-21T22:54:15.022Z,99931.31
2022-10-21T22:56:47.471Z,99917.38
2022-10-21T22:59:15.519Z,99918.63
2022-10-21T23:01:43.476Z,99940.00
2022-10-21T23:04:12.999Z,99940.00
2022-10-21T23:06:41.913Z,99917.19
2022-10-21T23:09:10.225Z,99920.69
2022-10-21T23:11:38.648Z,99920.41
2022-10-21T23:14:10.050Z,99950.25
2022-10-21T23:16:39.184Z,99899.53
2022-10-21T23:21:42.446Z,99944.28
2022-10-21T23:24:10.776Z,99942.97
2022-10-21T23:26:38.920Z,99942.63
2022-10-21T23:29:07.136Z,99924.19
2022-10-21T23:31:35.116Z,99943.47
2022-10-21T23:34:05.982Z,99927.94
2022-10-21T23:36:34.551Z,99946.59
2022-10-21T23:39:04.735Z,99906.28
2022-10-21T23:41:32.775Z,99938.25
2022-10-21T23:44:00.818Z,99919.91
2022-10-21T23:46:28.877Z,99973.56
2022-10-21T23:48:56.811Z,99960.66
2022-10-21T23:51:24.601Z,99973.81
2022-10-21T23:53:52.670Z,99971.16
2022-10-21T23:56:22.079Z,100002.97
2022-10-21T23:58:50.078Z,99983.13
